sensor_id;sensor_type;location;lat;lon;timestamp;temperature;humidity
41904;DHT22;27586;51.124;4.182;2022-12-15T00:01:41;-2.20;99.90
41904;DHT22;27586;51.124;4.182;2022-12-15T00:04:25;-2.20;99.90
41904;DHT22;27586;51.124;4.182;2022-12-15T00:07:09;-2.20;99.90
41904;DHT22;27586;51.124;4.182;2022-12-15T00:09:53;-2.30;99.90
41904;DHT22;27586;51.124;4.182;2022-12-15T00:12:37;-2.30;99.90
41904;DHT22;27586;51.124;4.182;2022-12-15T00:15:21;-2.30;99.90
41904;DHT22;27586;51.124;4.182;2022-12-15T00:18:05;-2.30;99.90
41904;DHT22;27586;51.124;4.182;2022-12-15T00:20:50;-2.40;99.90
41904;DHT22;27586;51.124;4.182;2022-12-15T00:23:34;-2.30;99.90
41904;DHT22;27586;51.124;4.182;2022-12-15T00:26:18;-2.40;99.90
41904;DHT22;27586;51.124;4.182;2022-12-15T00:29:03;-2.40;99.90
41904;DHT22;27586;51.124;4.182;2022-12-15T00:31:46;-2.30;99.90
41904;DHT22;27586;51.124;4.182;2022-12-15T00:34:30;-2.20;99.90
41904;DHT22;27586;51.124;4.182;2022-12-15T00:37:14;-2.30;99.90
41904;DHT22;27586;51.124;4.182;2022-12-15T00:39:59;-2.30;99.90
41904;DHT22;27586;51.124;4.182;2022-12-15T00:42:28;-2.30;99.90
41904;DHT22;27586;51.124;4.182;2022-12-15T00:44:55;-2.30;99.90
41904;DHT22;27586;51.124;4.182;2022-12-15T00:47:21;-2.30;99.90
41904;DHT22;27586;51.124;4.182;2022-12-15T00:49:47;-2.40;99.90
41904;DHT22;27586;51.124;4.182;2022-12-15T00:52:31;-2.40;99.90
41904;DHT22;27586;51.124;4.182;2022-12-15T00:55:15;-2.40;99.90
41904;DHT22;27586;51.124;4.182;2022-12-15T00:57:59;-2.50;99.90
41904;DHT22;27586;51.124;4.182;2022-12-15T01:00:43;-2.50;99.90
41904;DHT22;27586;51.124;4.182;2022-12-15T01:03:27;-2.40;99.90
41904;DHT22;27586;51.124;4.182;2022-12-15T01:06:17;-2.30;99.90
41904;DHT22;27586;51.124;4.182;2022-12-15T01:09:03;-2.20;99.90
41904;DHT22;27586;51.124;4.182;2022-12-15T01:11:49;-2.20;99.90
41904;DHT22;27586;51.124;4.182;2022-12-15T01:14:33;-2.20;99.90
41904;DHT22;27586;51.124;4.182;2022-12-15T01:17:18;-2.30;99.90
41904;DHT22;27586;51.124;4.182;2022-12-15T01:20:03;-2.30;99.90
41904;DHT22;27586;51.124;4.182;2022-12-15T01:25:11;-2.30;99.90
41904;DHT22;27586;51.124;4.182;2022-12-15T01:27:36;-2.30;99.90
41904;DHT22;27586;51.124;4.182;2022-12-15T01:30:03;-2.30;99.90
41904;DHT22;27586;51.124;4.182;2022-12-15T01:32:29;-2.30;99.90
41904;DHT22;27586;51.124;4.182;2022-12-15T01:34:55;-2.30;99.90
41904;DHT22;27586;51.124;4.182;2022-12-15T01:37:20;-2.40;99.90
41904;DHT22;27586;51.124;4.182;2022-12-15T01:39:46;-2.40;99.90
41904;DHT22;27586;51.124;4.182;2022-12-15T01:42:30;-2.50;99.90
41904;DHT22;27586;51.124;4.182;2022-12-15T01:47:50;-2.50;99.90
41904;DHT22;27586;51.124;4.182;2022-12-15T01:50:17;-2.50;99.90
41904;DHT22;27586;51.124;4.182;2022-12-15T01:52:44;-2.50;99.90
41904;DHT22;27586;51.124;4.182;2022-12-15T01:55:10;-2.50;99.90
41904;DHT22;27586;51.124;4.182;2022-12-15T01:57:35;-2.50;99.90
41904;DHT22;27586;51.124;4.182;2022-12-15T02:00:04;-2.60;99.90
41904;DHT22;27586;51.124;4.182;2022-12-15T02:02:31;-2.50;99.90
41904;DHT22;27586;51.124;4.182;2022-12-15T02:04:59;-2.50;99.90
41904;DHT22;27586;51.124;4.182;2022-12-15T02:07:25;-2.50;99.90
41904;DHT22;27586;51.124;4.182;2022-12-15T02:09:54;-2.50;99.90
41904;DHT22;27586;51.124;4.182;2022-12-15T02:12:40;-2.50;99.90
41904;DHT22;27586;51.124;4.182;2022-12-15T02:15:31;-2.60;99.90
41904;DHT22;27586;51.124;4.182;2022-12-15T02:18:21;-2.60;99.90
41904;DHT22;27586;51.124;4.182;2022-12-15T02:23:50;-2.60;99.90
41904;DHT22;27586;51.124;4.182;2022-12-15T02:35:43;-2.60;99.90
41904;DHT22;27586;51.124;4.182;2022-12-15T02:38:07;-2.70;99.90
41904;DHT22;27586;51.124;4.182;2022-12-15T02:40:33;-2.60;99.90
41904;DHT22;27586;51.124;4.182;2022-12-15T02:43:00;-2.60;99.90
41904;DHT22;27586;51.124;4.182;2022-12-15T02:45:59;-2.60;99.90
41904;DHT22;27586;51.124;4.182;2022-12-15T02:51:33;-2.40;99.90
41904;DHT22;27586;51.124;4.182;2022-12-15T02:54:26;-2.40;99.90
41904;DHT22;27586;51.124;4.182;2022-12-15T02:56:59;-2.50;99.90
41904;DHT22;27586;51.124;4.182;2022-12-15T03:00:03;-2.70;99.90
41904;DHT22;27586;51.124;4.182;2022-12-15T03:02:30;-2.60;99.90
41904;DHT22;27586;51.124;4.182;2022-12-15T03:04:57;-2.50;99.90
41904;DHT22;27586;51.124;4.182;2022-12-15T03:07:23;-2.60;99.90
41904;DHT22;27586;51.124;4.182;2022-12-15T03:09:55;-2.60;99.90
41904;DHT22;27586;51.124;4.182;2022-12-15T03:12:21;-2.60;99.90
41904;DHT22;27586;51.124;4.182;2022-12-15T03:14:47;-2.60;99.90
41904;DHT22;27586;51.124;4.182;2022-12-15T03:17:12;-2.50;99.90
41904;DHT22;27586;51.124;4.182;2022-12-15T03:19:38;-2.50;99.90
41904;DHT22;27586;51.124;4.182;2022-12-15T03:22:04;-2.70;99.90
41904;DHT22;27586;51.124;4.182;2022-12-15T03:24:29;-2.60;99.90
41904;DHT22;27586;51.124;4.182;2022-12-15T03:26:55;-2.50;99.90
41904;DHT22;27586;51.124;4.182;2022-12-15T03:29:21;-2.50;99.90
41904;DHT22;27586;51.124;4.182;2022-12-15T03:31:46;-2.60;99.90
41904;DHT22;27586;51.124;4.182;2022-12-15T03:34:13;-2.50;99.90
41904;DHT22;27586;51.124;4.182;2022-12-15T03:36:39;-2.50;99.90
41904;DHT22;27586;51.124;4.182;2022-12-15T03:39:05;-2.50;99.90
41904;DHT22;27586;51.124;4.182;2022-12-15T03:41:31;-2.50;99.90
41904;DHT22;27586;51.124;4.182;2022-12-15T03:43:56;-2.50;99.90
41904;DHT22;27586;51.124;4.182;2022-12-15T03:46:22;-2.40;99.90
41904;DHT22;27586;51.124;4.182;2022-12-15T03:48:48;-2.50;99.90
41904;DHT22;27586;51.124;4.182;2022-12-15T03:51:13;-2.50;99.90
41904;DHT22;27586;51.124;4.182;2022-12-15T03:53:39;-2.50;99.90
41904;DHT22;27586;51.124;4.182;2022-12-15T03:56:05;-2.70;99.90
41904;DHT22;27586;51.124;4.182;2022-12-15T03:58:31;-2.70;99.90
41904;DHT22;27586;51.124;4.182;2022-12-15T04:00:57;-2.60;99.90
41904;DHT22;27586;51.124;4.182;2022-12-15T04:03:22;-2.70;99.90
41904;DHT22;27586;51.124;4.182;2022-12-15T04:05:48;-2.60;99.90
41904;DHT22;27586;51.124;4.182;2022-12-15T04:08:14;-2.70;99.90
41904;DHT22;27586;51.124;4.182;2022-12-15T04:10:40;-2.70;99.90
41904;DHT22;27586;51.124;4.182;2022-12-15T04:13:10;-2.70;99.90
41904;DHT22;27586;51.124;4.182;2022-12-15T04:15:38;-2.60;99.90
41904;DHT22;27586;51.124;4.182;2022-12-15T04:18:06;-2.70;99.90
41904;DHT22;27586;51.124;4.182;2022-12-15T04:20:32;-2.70;99.90
41904;DHT22;27586;51.124;4.182;2022-12-15T04:23:01;-2.60;99.90
41904;DHT22;27586;51.124;4.182;2022-12-15T04:25:27;-2.60;99.90
41904;DHT22;27586;51.124;4.182;2022-12-15T04:28:11;-2.60;99.90
41904;DHT22;27586;51.124;4.182;2022-12-15T04:31:14;-2.70;99.90
41904;DHT22;27586;51.124;4.182;2022-12-15T04:34:04;-2.80;99.90
41904;DHT22;27586;51.124;4.182;2022-12-15T04:36:51;-2.80;99.90
41904;DHT22;27586;51.124;4.182;2022-12-15T04:39:38;-2.80;99.90
41904;DHT22;27586;51.124;4.182;2022-12-15T04:42:23;-2.90;99.90
41904;DHT22;27586;51.124;4.182;2022-12-15T04:45:08;-3.00;99.90
41904;DHT22;27586;51.124;4.182;2022-12-15T04:47:52;-2.90;99.90
41904;DHT22;27586;51.124;4.182;2022-12-15T04:50:36;-2.80;99.90
41904;DHT22;27586;51.124;4.182;2022-12-15T04:53:21;-2.80;99.90
41904;DHT22;27586;51.124;4.182;2022-12-15T04:56:10;-2.80;99.90
41904;DHT22;27586;51.124;4.182;2022-12-15T04:58:54;-2.80;99.90
41904;DHT22;27586;51.124;4.182;2022-12-15T05:01:38;-3.20;99.90
41904;DHT22;27586;51.124;4.182;2022-12-15T05:04:22;-3.20;99.90
41904;DHT22;27586;51.124;4.182;2022-12-15T05:07:07;-3.40;99.90
41904;DHT22;27586;51.124;4.182;2022-12-15T05:09:51;-3.40;99.90
41904;DHT22;27586;51.124;4.182;2022-12-15T05:12:35;-3.10;99.90
41904;DHT22;27586;51.124;4.182;2022-12-15T05:15:19;-3.00;99.90
41904;DHT22;27586;51.124;4.182;2022-12-15T05:18:04;-2.90;99.90
41904;DHT22;27586;51.124;4.182;2022-12-15T05:20:48;-2.90;99.90
41904;DHT22;27586;51.124;4.182;2022-12-15T05:23:32;-2.90;99.90
41904;DHT22;27586;51.124;4.182;2022-12-15T05:26:16;-2.90;99.90
41904;DHT22;27586;51.124;4.182;2022-12-15T05:29:00;-3.00;99.90
41904;DHT22;27586;51.124;4.182;2022-12-15T05:31:44;-3.20;99.90
41904;DHT22;27586;51.124;4.182;2022-12-15T05:34:31;-3.20;99.90
41904;DHT22;27586;51.124;4.182;2022-12-15T05:36:58;-3.00;99.90
41904;DHT22;27586;51.124;4.182;2022-12-15T05:39:25;-2.90;99.90
41904;DHT22;27586;51.124;4.182;2022-12-15T05:41:52;-2.80;99.90
41904;DHT22;27586;51.124;4.182;2022-12-15T05:44:18;-2.80;99.90
41904;DHT22;27586;51.124;4.182;2022-12-15T05:46:44;-2.80;99.90
41904;DHT22;27586;51.124;4.182;2022-12-15T05:49:12;-2.90;99.90
41904;DHT22;27586;51.124;4.182;2022-12-15T05:51:43;-2.90;99.90
41904;DHT22;27586;51.124;4.182;2022-12-15T05:54:10;-2.90;99.90
41904;DHT22;27586;51.124;4.182;2022-12-15T05:56:37;-2.90;99.90
41904;DHT22;27586;51.124;4.182;2022-12-15T05:59:03;-3.10;99.90
41904;DHT22;27586;51.124;4.182;2022-12-15T06:01:30;-3.60;99.90
41904;DHT22;27586;51.124;4.182;2022-12-15T06:03:56;-3.90;99.90
41904;DHT22;27586;51.124;4.182;2022-12-15T06:06:22;-4.00;99.90
41904;DHT22;27586;51.124;4.182;2022-12-15T06:08:48;-4.00;99.90
41904;DHT22;27586;51.124;4.182;2022-12-15T06:11:15;-4.10;99.90
41904;DHT22;27586;51.124;4.182;2022-12-15T06:13:41;-4.10;99.90
41904;DHT22;27586;51.124;4.182;2022-12-15T06:16:14;-4.30;99.90
41904;DHT22;27586;51.124;4.182;2022-12-15T06:18:43;-4.40;99.90
41904;DHT22;27586;51.124;4.182;2022-12-15T06:21:12;-4.30;99.90
41904;DHT22;27586;51.124;4.182;2022-12-15T06:23:39;-4.20;99.90
41904;DHT22;27586;51.124;4.182;2022-12-15T06:26:25;-4.30;99.90
41904;DHT22;27586;51.124;4.182;2022-12-15T06:28:51;-4.40;99.90
41904;DHT22;27586;51.124;4.182;2022-12-15T06:31:19;-4.50;99.90
41904;DHT22;27586;51.124;4.182;2022-12-15T06:33:52;-4.40;99.90
41904;DHT22;27586;51.124;4.182;2022-12-15T06:36:18;-4.30;99.90
41904;DHT22;27586;51.124;4.182;2022-12-15T06:38:45;-4.30;99.90
41904;DHT22;27586;51.124;4.182;2022-12-15T06:41:13;-4.40;99.90
41904;DHT22;27586;51.124;4.182;2022-12-15T06:43:40;-4.50;99.90
41904;DHT22;27586;51.124;4.182;2022-12-15T06:46:06;-4.60;99.90
41904;DHT22;27586;51.124;4.182;2022-12-15T06:48:31;-4.80;99.90
41904;DHT22;27586;51.124;4.182;2022-12-15T06:51:02;-4.70;99.90
41904;DHT22;27586;51.124;4.182;2022-12-15T06:53:29;-4.70;99.90
41904;DHT22;27586;51.124;4.182;2022-12-15T06:55:59;-4.50;99.90
41904;DHT22;27586;51.124;4.182;2022-12-15T06:58:28;-4.40;99.90
41904;DHT22;27586;51.124;4.182;2022-12-15T07:00:55;-4.50;99.90
41904;DHT22;27586;51.124;4.182;2022-12-15T07:03:21;-4.70;99.90
41904;DHT22;27586;51.124;4.182;2022-12-15T07:05:47;-4.70;99.90
41904;DHT22;27586;51.124;4.182;2022-12-15T07:08:14;-4.80;99.90
41904;DHT22;27586;51.124;4.182;2022-12-15T07:10:43;-4.80;99.90
41904;DHT22;27586;51.124;4.182;2022-12-15T07:13:12;-4.60;99.90
41904;DHT22;27586;51.124;4.182;2022-12-15T07:15:39;-4.80;99.90
41904;DHT22;27586;51.124;4.182;2022-12-15T07:18:06;-5.00;99.90
41904;DHT22;27586;51.124;4.182;2022-12-15T07:20:32;-4.90;99.90
41904;DHT22;27586;51.124;4.182;2022-12-15T07:22:58;-4.80;99.90
41904;DHT22;27586;51.124;4.182;2022-12-15T07:25:25;-4.60;99.90
41904;DHT22;27586;51.124;4.182;2022-12-15T07:27:51;-4.80;99.90
41904;DHT22;27586;51.124;4.182;2022-12-15T07:30:16;-5.00;99.90
41904;DHT22;27586;51.124;4.182;2022-12-15T07:32:43;-4.90;99.90
41904;DHT22;27586;51.124;4.182;2022-12-15T07:35:09;-4.80;99.90
41904;DHT22;27586;51.124;4.182;2022-12-15T07:37:35;-4.70;99.90
41904;DHT22;27586;51.124;4.182;2022-12-15T07:40:02;-4.60;99.90
41904;DHT22;27586;51.124;4.182;2022-12-15T07:42:29;-4.60;99.90
41904;DHT22;27586;51.124;4.182;2022-12-15T07:44:54;-4.60;99.90
41904;DHT22;27586;51.124;4.182;2022-12-15T07:47:20;-4.50;99.90
41904;DHT22;27586;51.124;4.182;2022-12-15T07:49:45;-4.50;99.90
41904;DHT22;27586;51.124;4.182;2022-12-15T07:52:11;-4.50;99.90
41904;DHT22;27586;51.124;4.182;2022-12-15T07:54:38;-4.50;99.90
41904;DHT22;27586;51.124;4.182;2022-12-15T07:57:04;-4.50;99.90
41904;DHT22;27586;51.124;4.182;2022-12-15T07:59:33;-4.50;99.90
41904;DHT22;27586;51.124;4.182;2022-12-15T08:01:59;-4.70;99.90
41904;DHT22;27586;51.124;4.182;2022-12-15T08:04:26;-4.90;99.90
41904;DHT22;27586;51.124;4.182;2022-12-15T08:06:55;-5.00;99.90
41904;DHT22;27586;51.124;4.182;2022-12-15T08:09:20;-4.80;99.90
41904;DHT22;27586;51.124;4.182;2022-12-15T08:11:46;-4.70;99.90
41904;DHT22;27586;51.124;4.182;2022-12-15T08:14:12;-4.80;99.90
41904;DHT22;27586;51.124;4.182;2022-12-15T08:16:38;-4.80;99.90
41904;DHT22;27586;51.124;4.182;2022-12-15T08:19:05;-5.00;99.90
41904;DHT22;27586;51.124;4.182;2022-12-15T08:21:31;-5.10;99.90
41904;DHT22;27586;51.124;4.182;2022-12-15T08:23:58;-5.10;99.90
41904;DHT22;27586;51.124;4.182;2022-12-15T08:26:25;-5.10;99.90
41904;DHT22;27586;51.124;4.182;2022-12-15T08:28:51;-5.00;99.90
41904;DHT22;27586;51.124;4.182;2022-12-15T08:31:19;-4.80;99.90
41904;DHT22;27586;51.124;4.182;2022-12-15T08:33:46;-4.40;99.90
41904;DHT22;27586;51.124;4.182;2022-12-15T08:36:14;-4.30;99.90
41904;DHT22;27586;51.124;4.182;2022-12-15T08:38:44;-4.20;99.90
41904;DHT22;27586;51.124;4.182;2022-12-15T08:41:16;-4.00;99.90
41904;DHT22;27586;51.124;4.182;2022-12-15T08:43:42;-3.70;99.90
41904;DHT22;27586;51.124;4.182;2022-12-15T08:46:09;-3.60;99.90
41904;DHT22;27586;51.124;4.182;2022-12-15T08:48:34;-3.50;99.90
41904;DHT22;27586;51.124;4.182;2022-12-15T08:51:01;-3.70;99.90
41904;DHT22;27586;51.124;4.182;2022-12-15T08:53:27;-4.00;99.90
41904;DHT22;27586;51.124;4.182;2022-12-15T08:55:52;-3.90;99.90
41904;DHT22;27586;51.124;4.182;2022-12-15T08:58:18;-3.90;99.90
41904;DHT22;27586;51.124;4.182;2022-12-15T09:00:45;-3.90;99.90
41904;DHT22;27586;51.124;4.182;2022-12-15T09:03:13;-3.60;99.90
41904;DHT22;27586;51.124;4.182;2022-12-15T09:05:39;-3.60;99.90
41904;DHT22;27586;51.124;4.182;2022-12-15T09:08:05;-3.50;99.90
41904;DHT22;27586;51.124;4.182;2022-12-15T09:10:30;-3.50;99.90
41904;DHT22;27586;51.124;4.182;2022-12-15T09:12:56;-3.50;99.90
41904;DHT22;27586;51.124;4.182;2022-12-15T09:15:22;-3.50;99.90
41904;DHT22;27586;51.124;4.182;2022-12-15T09:17:47;-3.20;99.90
41904;DHT22;27586;51.124;4.182;2022-12-15T09:20:13;-2.90;99.90
41904;DHT22;27586;51.124;4.182;2022-12-15T09:22:42;-2.80;99.90
41904;DHT22;27586;51.124;4.182;2022-12-15T09:25:08;-2.80;99.90
41904;DHT22;27586;51.124;4.182;2022-12-15T09:27:34;-2.80;99.90
41904;DHT22;27586;51.124;4.182;2022-12-15T09:30:00;-2.60;99.90
41904;DHT22;27586;51.124;4.182;2022-12-15T09:32:26;-2.50;99.90
41904;DHT22;27586;51.124;4.182;2022-12-15T09:34:53;-2.50;99.90
41904;DHT22;27586;51.124;4.182;2022-12-15T09:37:19;-2.40;99.90
41904;DHT22;27586;51.124;4.182;2022-12-15T09:39:45;-2.50;99.90
41904;DHT22;27586;51.124;4.182;2022-12-15T09:42:28;-2.40;99.90
41904;DHT22;27586;51.124;4.182;2022-12-15T09:45:15;-2.30;99.90
41904;DHT22;27586;51.124;4.182;2022-12-15T09:48:07;-2.30;99.90
41904;DHT22;27586;51.124;4.182;2022-12-15T09:50:37;-2.30;99.90
41904;DHT22;27586;51.124;4.182;2022-12-15T09:53:04;-2.40;99.90
41904;DHT22;27586;51.124;4.182;2022-12-15T09:55:33;-2.30;99.90
41904;DHT22;27586;51.124;4.182;2022-12-15T09:58:05;-2.20;99.90
41904;DHT22;27586;51.124;4.182;2022-12-15T10:00:53;-2.20;99.90
41904;DHT22;27586;51.124;4.182;2022-12-15T10:09:24;-2.10;99.90
41904;DHT22;27586;51.124;4.182;2022-12-15T10:14:52;-2.10;99.90
41904;DHT22;27586;51.124;4.182;2022-12-15T10:22:35;-1.90;99.90
41904;DHT22;27586;51.124;4.182;2022-12-15T10:25:31;-2.00;99.90
41904;DHT22;27586;51.124;4.182;2022-12-15T10:31:22;-2.00;99.90
41904;DHT22;27586;51.124;4.182;2022-12-15T10:34:10;-1.90;99.90
41904;DHT22;27586;51.124;4.182;2022-12-15T10:36:49;-1.90;99.90
41904;DHT22;27586;51.124;4.182;2022-12-15T10:39:15;-1.90;99.90
41904;DHT22;27586;51.124;4.182;2022-12-15T10:41:41;-1.90;99.90
41904;DHT22;27586;51.124;4.182;2022-12-15T10:44:25;-1.90;99.90
41904;DHT22;27586;51.124;4.182;2022-12-15T10:46:54;-1.80;99.90
41904;DHT22;27586;51.124;4.182;2022-12-15T10:49:23;-1.70;99.90
41904;DHT22;27586;51.124;4.182;2022-12-15T10:51:56;-1.70;99.90
41904;DHT22;27586;51.124;4.182;2022-12-15T10:54:26;-1.60;99.90
41904;DHT22;27586;51.124;4.182;2022-12-15T10:56:56;-1.50;99.90
41904;DHT22;27586;51.124;4.182;2022-12-15T10:59:31;-1.50;99.90
41904;DHT22;27586;51.124;4.182;2022-12-15T11:05:07;-1.20;99.90
41904;DHT22;27586;51.124;4.182;2022-12-15T11:10:22;-1.20;99.90
41904;DHT22;27586;51.124;4.182;2022-12-15T11:13:14;-1.20;99.90
41904;DHT22;27586;51.124;4.182;2022-12-15T11:15:49;-1.20;99.90
41904;DHT22;27586;51.124;4.182;2022-12-15T11:23:41;-0.80;99.90
41904;DHT22;27586;51.124;4.182;2022-12-15T11:26:26;-0.80;99.90
41904;DHT22;27586;51.124;4.182;2022-12-15T11:29:00;-0.80;99.90
41904;DHT22;27586;51.124;4.182;2022-12-15T11:31:33;-0.80;99.90
41904;DHT22;27586;51.124;4.182;2022-12-15T11:34:01;-0.70;99.90
41904;DHT22;27586;51.124;4.182;2022-12-15T11:36:47;-0.60;99.90
41904;DHT22;27586;51.124;4.182;2022-12-15T11:42:33;-0.50;99.90
41904;DHT22;27586;51.124;4.182;2022-12-15T11:47:52;-0.50;99.90
41904;DHT22;27586;51.124;4.182;2022-12-15T12:04:15;-0.30;99.90
41904;DHT22;27586;51.124;4.182;2022-12-15T12:07:06;-0.20;99.90
41904;DHT22;27586;51.124;4.182;2022-12-15T12:09:36;-0.10;99.90
41904;DHT22;27586;51.124;4.182;2022-12-15T12:12:21;0.10;99.90
41904;DHT22;27586;51.124;4.182;2022-12-15T12:15:14;0.30;99.90
41904;DHT22;27586;51.124;4.182;2022-12-15T12:17:51;0.30;99.90
41904;DHT22;27586;51.124;4.182;2022-12-15T12:25:20;0.50;99.90
41904;DHT22;27586;51.124;4.182;2022-12-15T12:27:52;0.50;99.90
41904;DHT22;27586;51.124;4.182;2022-12-15T12:30:21;0.50;99.90
41904;DHT22;27586;51.124;4.182;2022-12-15T12:37:54;0.50;99.90
41904;DHT22;27586;51.124;4.182;2022-12-15T12:42:54;0.60;99.90
41904;DHT22;27586;51.124;4.182;2022-12-15T12:45:28;0.50;99.90
41904;DHT22;27586;51.124;4.182;2022-12-15T12:48:01;0.50;99.90
41904;DHT22;27586;51.124;4.182;2022-12-15T12:50:28;0.60;99.90
41904;DHT22;27586;51.124;4.182;2022-12-15T12:52:59;0.70;99.90
41904;DHT22;27586;51.124;4.182;2022-12-15T12:55:46;0.60;99.90
41904;DHT22;27586;51.124;4.182;2022-12-15T12:58:43;0.50;99.90
41904;DHT22;27586;51.124;4.182;2022-12-15T13:01:17;0.60;99.90
41904;DHT22;27586;51.124;4.182;2022-12-15T13:03:44;0.60;99.90
41904;DHT22;27586;51.124;4.182;2022-12-15T13:06:26;0.50;99.90
41904;DHT22;27586;51.124;4.182;2022-12-15T13:11:56;0.70;99.90
41904;DHT22;27586;51.124;4.182;2022-12-15T13:14:29;0.60;99.90
41904;DHT22;27586;51.124;4.182;2022-12-15T13:22:34;0.70;99.90
41904;DHT22;27586;51.124;4.182;2022-12-15T13:25:01;0.80;99.90
41904;DHT22;27586;51.124;4.182;2022-12-15T13:27:35;0.80;99.90
41904;DHT22;27586;51.124;4.182;2022-12-15T13:37:52;0.90;99.90
41904;DHT22;27586;51.124;4.182;2022-12-15T13:48:22;0.90;99.90
41904;DHT22;27586;51.124;4.182;2022-12-15T13:51:02;0.80;99.90
41904;DHT22;27586;51.124;4.182;2022-12-15T13:53:43;0.70;99.90
41904;DHT22;27586;51.124;4.182;2022-12-15T13:58:42;0.60;99.90
41904;DHT22;27586;51.124;4.182;2022-12-15T14:01:20;0.50;99.90
41904;DHT22;27586;51.124;4.182;2022-12-15T14:04:10;0.50;99.90
41904;DHT22;27586;51.124;4.182;2022-12-15T14:09:25;0.50;99.90
41904;DHT22;27586;51.124;4.182;2022-12-15T14:11:52;0.60;99.90
41904;DHT22;27586;51.124;4.182;2022-12-15T14:14:27;0.70;99.90
41904;DHT22;27586;51.124;4.182;2022-12-15T14:16:59;0.80;99.90
41904;DHT22;27586;51.124;4.182;2022-12-15T14:19:25;0.80;99.90
41904;DHT22;27586;51.124;4.182;2022-12-15T14:21:56;0.90;99.90
41904;DHT22;27586;51.124;4.182;2022-12-15T14:24:23;0.80;99.90
41904;DHT22;27586;51.124;4.182;2022-12-15T14:26:49;0.80;99.90
41904;DHT22;27586;51.124;4.182;2022-12-15T14:29:16;0.90;99.90
41904;DHT22;27586;51.124;4.182;2022-12-15T14:31:46;0.80;99.90
41904;DHT22;27586;51.124;4.182;2022-12-15T14:34:27;0.70;99.90
41904;DHT22;27586;51.124;4.182;2022-12-15T14:36:56;0.60;99.90
41904;DHT22;27586;51.124;4.182;2022-12-15T14:39:36;0.70;99.90
41904;DHT22;27586;51.124;4.182;2022-12-15T14:42:03;0.80;99.90
41904;DHT22;27586;51.124;4.182;2022-12-15T14:44:36;0.80;99.90
41904;DHT22;27586;51.124;4.182;2022-12-15T14:47:06;0.80;99.90
41904;DHT22;27586;51.124;4.182;2022-12-15T14:49:37;0.80;99.90
41904;DHT22;27586;51.124;4.182;2022-12-15T14:52:05;0.80;99.90
41904;DHT22;27586;51.124;4.182;2022-12-15T14:54:37;0.90;99.90
41904;DHT22;27586;51.124;4.182;2022-12-15T14:57:12;0.90;99.90
41904;DHT22;27586;51.124;4.182;2022-12-15T14:59:42;0.80;99.90
41904;DHT22;27586;51.124;4.182;2022-12-15T15:04:33;0.60;99.90
41904;DHT22;27586;51.124;4.182;2022-12-15T15:07:05;0.40;99.90
41904;DHT22;27586;51.124;4.182;2022-12-15T15:09:42;0.30;99.90
41904;DHT22;27586;51.124;4.182;2022-12-15T15:17:15;0.60;99.90
41904;DHT22;27586;51.124;4.182;2022-12-15T15:20:01;0.80;99.90
41904;DHT22;27586;51.124;4.182;2022-12-15T15:22:37;0.90;99.90
41904;DHT22;27586;51.124;4.182;2022-12-15T15:25:33;0.70;99.90
41904;DHT22;27586;51.124;4.182;2022-12-15T15:30:58;0.70;99.90
41904;DHT22;27586;51.124;4.182;2022-12-15T15:33:32;0.70;99.90
41904;DHT22;27586;51.124;4.182;2022-12-15T15:36:00;0.60;99.90
41904;DHT22;27586;51.124;4.182;2022-12-15T15:38:32;0.50;99.90
41904;DHT22;27586;51.124;4.182;2022-12-15T15:41:00;0.30;99.90
41904;DHT22;27586;51.124;4.182;2022-12-15T15:43:27;0.30;99.90
41904;DHT22;27586;51.124;4.182;2022-12-15T15:46:14;0.30;99.90
41904;DHT22;27586;51.124;4.182;2022-12-15T15:48:46;0.30;99.90
41904;DHT22;27586;51.124;4.182;2022-12-15T15:51:12;0.30;99.90
41904;DHT22;27586;51.124;4.182;2022-12-15T15:53:38;0.20;99.90
41904;DHT22;27586;51.124;4.182;2022-12-15T15:56:07;0.10;99.90
41904;DHT22;27586;51.124;4.182;2022-12-15T15:58:34;0.10;99.90
41904;DHT22;27586;51.124;4.182;2022-12-15T16:01:00;-0.30;99.90
41904;DHT22;27586;51.124;4.182;2022-12-15T16:03:26;-0.60;99.90
41904;DHT22;27586;51.124;4.182;2022-12-15T16:05:52;-0.70;99.90
41904;DHT22;27586;51.124;4.182;2022-12-15T16:08:24;-0.70;99.90
41904;DHT22;27586;51.124;4.182;2022-12-15T16:10:51;-0.50;99.90
41904;DHT22;27586;51.124;4.182;2022-12-15T16:13:19;-0.60;99.90
41904;DHT22;27586;51.124;4.182;2022-12-15T16:15:46;-0.60;99.90
41904;DHT22;27586;51.124;4.182;2022-12-15T16:18:12;-0.50;99.90
41904;DHT22;27586;51.124;4.182;2022-12-15T16:20:39;-0.50;99.90
41904;DHT22;27586;51.124;4.182;2022-12-15T16:23:14;-0.60;99.90
41904;DHT22;27586;51.124;4.182;2022-12-15T16:25:46;-0.70;99.90
41904;DHT22;27586;51.124;4.182;2022-12-15T16:28:18;-1.00;99.90
41904;DHT22;27586;51.124;4.182;2022-12-15T16:30:48;-1.20;99.90
41904;DHT22;27586;51.124;4.182;2022-12-15T16:33:14;-1.10;99.90
41904;DHT22;27586;51.124;4.182;2022-12-15T16:35:41;-1.00;99.90
41904;DHT22;27586;51.124;4.182;2022-12-15T16:38:29;-1.00;99.90
41904;DHT22;27586;51.124;4.182;2022-12-15T16:40:57;-1.00;99.90
41904;DHT22;27586;51.124;4.182;2022-12-15T16:43:25;-1.10;99.90
41904;DHT22;27586;51.124;4.182;2022-12-15T16:45:52;-0.90;99.90
41904;DHT22;27586;51.124;4.182;2022-12-15T16:48:18;-0.90;99.90
41904;DHT22;27586;51.124;4.182;2022-12-15T16:50:53;-0.80;99.90
41904;DHT22;27586;51.124;4.182;2022-12-15T16:53:28;-0.90;99.90
41904;DHT22;27586;51.124;4.182;2022-12-15T16:55:56;-1.20;99.90
41904;DHT22;27586;51.124;4.182;2022-12-15T16:58:23;-1.10;99.90
41904;DHT22;27586;51.124;4.182;2022-12-15T17:00:50;-1.10;99.90
41904;DHT22;27586;51.124;4.182;2022-12-15T17:03:20;-1.00;99.90
41904;DHT22;27586;51.124;4.182;2022-12-15T17:06:00;-0.90;99.90
41904;DHT22;27586;51.124;4.182;2022-12-15T17:08:37;-0.90;99.90
41904;DHT22;27586;51.124;4.182;2022-12-15T17:11:17;-1.00;99.90
41904;DHT22;27586;51.124;4.182;2022-12-15T17:13:44;-1.00;99.90
41904;DHT22;27586;51.124;4.182;2022-12-15T17:16:13;-1.00;99.90
41904;DHT22;27586;51.124;4.182;2022-12-15T17:18:39;-1.10;99.90
41904;DHT22;27586;51.124;4.182;2022-12-15T17:21:09;-1.10;99.90
41904;DHT22;27586;51.124;4.182;2022-12-15T17:23:38;-1.10;99.90
41904;DHT22;27586;51.124;4.182;2022-12-15T17:26:05;-1.20;99.90
41904;DHT22;27586;51.124;4.182;2022-12-15T17:28:33;-1.30;99.90
41904;DHT22;27586;51.124;4.182;2022-12-15T17:31:02;-1.30;99.90
41904;DHT22;27586;51.124;4.182;2022-12-15T17:33:31;-1.40;99.90
41904;DHT22;27586;51.124;4.182;2022-12-15T17:36:13;-1.30;99.90
41904;DHT22;27586;51.124;4.182;2022-12-15T17:38:39;-1.30;99.90
41904;DHT22;27586;51.124;4.182;2022-12-15T17:41:05;-1.30;99.90
41904;DHT22;27586;51.124;4.182;2022-12-15T17:43:30;-1.30;99.90
41904;DHT22;27586;51.124;4.182;2022-12-15T17:45:56;-1.30;99.90
41904;DHT22;27586;51.124;4.182;2022-12-15T17:48:22;-1.40;99.90
41904;DHT22;27586;51.124;4.182;2022-12-15T17:50:49;-1.40;99.90
41904;DHT22;27586;51.124;4.182;2022-12-15T17:53:18;-1.30;99.90
41904;DHT22;27586;51.124;4.182;2022-12-15T17:55:45;-1.30;99.90
41904;DHT22;27586;51.124;4.182;2022-12-15T17:58:20;-1.40;99.90
41904;DHT22;27586;51.124;4.182;2022-12-15T18:00:48;-1.40;99.90
41904;DHT22;27586;51.124;4.182;2022-12-15T18:03:18;-1.70;99.90
41904;DHT22;27586;51.124;4.182;2022-12-15T18:05:46;-1.80;99.90